Time;durP1;ratioP1;P1;durP2;ratioP2;P2;SDS_P1;SDS_P2;PMS_P1;PMS_P2;Temp;Humidity;BMP_temperature;BMP_pressure;BME280_temperature;BME280_humidity;BME280_pressure;Samples;Min_cycle;Max_cycle;Signal;HPM_P1;HPM_P2
2022/07/15 00:01:13;;;;;;;154.40;137.60;;;13.90;93.50;;;;;;5032708;28;20137;-79
2022/07/15 00:03:40;;;;;;;168.95;145.07;;;13.90;93.70;;;;;;5032221;28;20133;-79
2022/07/15 00:06:07;;;;;;;150.40;134.18;;;13.80;93.80;;;;;;5032078;28;20073;-78
2022/07/15 00:08:36;;;;;;;144.23;129.05;;;13.70;93.90;;;;;;5031891;28;20057;-79
2022/07/15 00:11:03;;;;;;;149.55;133.73;;;13.70;94.00;;;;;;5033222;28;20060;-79
2022/07/15 00:13:31;;;;;;;154.35;136.32;;;13.70;94.10;;;;;;5031853;28;20050;-79
2022/07/15 00:15:58;;;;;;;178.95;154.10;;;13.70;94.10;;;;;;5032295;28;20481;-78
2022/07/15 00:18:25;;;;;;;174.50;153.00;;;13.70;94.10;;;;;;5032796;28;20504;-78
2022/07/15 00:20:52;;;;;;;170.82;149.40;;;13.70;94.20;;;;;;5033211;28;20048;-79
2022/07/15 00:23:19;;;;;;;151.85;135.52;;;13.70;94.30;;;;;;5031929;28;20114;-78
2022/07/15 00:25:47;;;;;;;176.45;152.40;;;13.70;94.30;;;;;;5032436;28;20060;-79
2022/07/15 00:28:14;;;;;;;172.90;146.95;;;13.70;94.40;;;;;;5031801;28;20050;-79
2022/07/15 00:30:42;;;;;;;171.70;148.90;;;13.70;94.50;;;;;;5015320;28;20081;-79
2022/07/15 00:33:10;;;;;;;156.60;139.40;;;13.70;94.80;;;;;;5032781;28;20057;-79
2022/07/15 00:35:39;;;;;;;159.00;140.88;;;13.60;95.10;;;;;;5031236;28;20075;-79
2022/07/15 00:38:09;;;;;;;148.38;132.23;;;13.60;95.30;;;;;;5031720;28;20054;-79
2022/07/15 00:40:41;;;;;;;145.55;129.82;;;13.50;95.20;;;;;;5031942;28;20108;-78
2022/07/15 00:43:10;;;;;;;149.20;127.07;;;13.50;95.60;;;;;;5015337;28;20135;-78
2022/07/15 00:45:37;;;;;;;138.30;123.40;;;13.50;95.60;;;;;;5015091;28;20105;-79
2022/07/15 00:48:06;;;;;;;155.55;131.35;;;13.40;95.60;;;;;;5031533;28;20054;-79
2022/07/15 00:50:33;;;;;;;162.48;136.07;;;13.40;95.60;;;;;;5015238;28;20054;-78
2022/07/15 00:53:03;;;;;;;148.82;130.05;;;13.40;95.70;;;;;;5033168;28;20940;-79
2022/07/15 00:55:32;;;;;;;137.10;122.20;;;13.40;95.70;;;;;;5031856;28;20076;-79
2022/07/15 00:58:05;;;;;;;142.80;126.90;;;13.50;95.60;;;;;;5041019;28;20054;-78
2022/07/15 01:00:34;;;;;;;138.20;123.20;;;13.50;95.70;;;;;;5051261;28;20064;-79
2022/07/15 01:03:03;;;;;;;139.77;124.10;;;13.50;95.70;;;;;;5036445;28;20046;-79
2022/07/15 01:05:30;;;;;;;150.07;129.55;;;13.50;95.70;;;;;;5038350;28;20107;-78
2022/07/15 01:07:58;;;;;;;141.43;125.40;;;13.50;95.70;;;;;;5054625;28;20124;-79
2022/07/15 01:10:25;;;;;;;147.88;129.10;;;13.50;95.80;;;;;;5055090;28;20061;-78
2022/07/15 01:12:52;;;;;;;142.15;125.07;;;13.50;95.80;;;;;;5054801;28;20085;-79
2022/07/15 01:15:26;;;;;;;158.40;132.77;;;13.50;95.70;;;;;;5054859;28;20057;-78
2022/07/15 01:17:54;;;;;;;154.75;132.27;;;13.50;96.00;;;;;;5055066;28;20049;-79
2022/07/15 01:20:22;;;;;;;140.50;125.10;;;13.50;96.10;;;;;;5037758;28;20049;-79
2022/07/15 01:23:00;;;;;;;166.70;136.45;;;13.50;96.10;;;;;;5037658;28;20053;-79
2022/07/15 01:25:40;;;;;;;158.73;130.15;;;13.50;96.40;;;;;;5037861;28;20124;-79
2022/07/15 01:28:10;;;;;;;161.45;131.93;;;13.50;96.40;;;;;;5037457;28;20053;-79
2022/07/15 01:30:38;;;;;;;135.88;120.95;;;13.60;96.50;;;;;;5051910;28;20049;-79
2022/07/15 01:33:06;;;;;;;170.77;137.43;;;13.60;96.70;;;;;;5037561;28;20136;-79
2022/07/15 01:35:33;;;;;;;182.88;142.93;;;13.50;96.80;;;;;;5037498;28;20443;-79
2022/07/15 01:38:02;;;;;;;166.90;136.02;;;13.60;96.70;;;;;;5054125;28;20084;-79
2022/07/15 01:40:29;;;;;;;177.77;142.45;;;13.60;97.00;;;;;;5037246;28;20100;-79
2022/07/15 01:42:58;;;;;;;175.52;140.95;;;13.60;97.00;;;;;;5037443;28;20056;-79
2022/07/15 01:45:25;;;;;;;172.85;138.60;;;13.60;97.10;;;;;;5037631;28;20046;-79
2022/07/15 01:47:54;;;;;;;166.75;135.70;;;13.70;97.10;;;;;;5037241;28;20052;-79
2022/07/15 01:50:40;;;;;;;166.27;134.63;;;13.70;97.10;;;;;;5037753;28;20046;-79
2022/07/15 01:53:14;;;;;;;169.98;138.65;;;13.70;97.20;;;;;;5037228;28;20157;-79
2022/07/15 01:55:41;;;;;;;161.35;132.45;;;13.80;97.10;;;;;;5037470;28;20053;-79
2022/07/15 01:58:08;;;;;;;155.63;130.88;;;13.80;97.00;;;;;;5036877;28;20041;-79
2022/07/15 02:00:37;;;;;;;160.60;134.70;;;13.80;97.20;;;;;;5053123;28;20084;-79
2022/07/15 02:03:04;;;;;;;163.07;135.35;;;13.80;97.10;;;;;;5036235;28;20045;-79
2022/07/15 02:05:31;;;;;;;159.20;134.90;;;13.80;97.00;;;;;;5032592;28;20121;-79
2022/07/15 02:07:58;;;;;;;159.10;135.10;;;13.80;97.00;;;;;;5015108;28;20110;-79
2022/07/15 02:10:39;;;;;;;154.85;134.40;;;13.80;97.10;;;;;;5015836;28;20046;-79
2022/07/15 02:13:10;;;;;;;152.30;131.13;;;13.80;97.00;;;;;;5015726;28;20136;-79
2022/07/15 02:15:37;;;;;;;155.40;131.30;;;13.80;97.00;;;;;;5014549;28;20188;-78
2022/07/15 02:18:05;;;;;;;158.65;135.68;;;13.80;97.00;;;;;;5015539;28;20053;-79
2022/07/15 02:20:33;;;;;;;146.38;126.82;;;13.80;97.10;;;;;;5032814;28;20049;-79
2022/07/15 02:23:01;;;;;;;152.98;130.88;;;13.80;97.00;;;;;;5016873;28;20136;-80
2022/07/15 02:25:32;;;;;;;164.05;135.57;;;13.80;97.10;;;;;;5033547;28;20139;-78
2022/07/15 02:28:00;;;;;;;161.27;136.07;;;13.80;97.10;;;;;;5033545;28;20076;-79
2022/07/15 02:30:29;;;;;;;160.13;136.65;;;13.70;97.10;;;;;;5017066;28;20508;-79
2022/07/15 02:32:57;;;;;;;161.55;135.93;;;13.70;97.10;;;;;;5033748;28;20061;-79
2022/07/15 02:35:26;;;;;;;152.63;131.40;;;13.70;97.20;;;;;;5016598;28;20049;-79
2022/07/15 02:37:53;;;;;;;159.48;135.07;;;13.70;97.10;;;;;;5045274;28;20057;-79
2022/07/15 02:40:20;;;;;;;171.13;140.48;;;13.70;97.10;;;;;;5036722;28;20069;-79
2022/07/15 02:42:50;;;;;;;165.48;137.15;;;13.70;97.10;;;;;;5036511;28;20050;-79
2022/07/15 02:45:19;;;;;;;164.27;137.45;;;13.70;97.00;;;;;;5053186;28;20142;-79
2022/07/15 02:47:47;;;;;;;161.27;136.88;;;13.70;97.10;;;;;;5036396;28;20500;-79
2022/07/15 02:50:16;;;;;;;166.10;137.73;;;13.70;97.00;;;;;;5053423;28;20046;-79
2022/07/15 02:52:44;;;;;;;158.23;134.30;;;13.70;97.00;;;;;;5036244;28;20045;-79
2022/07/15 02:55:12;;;;;;;167.13;139.85;;;13.60;96.90;;;;;;5036152;28;20049;-79
2022/07/15 02:57:41;;;;;;;162.50;135.57;;;13.70;96.80;;;;;;5036090;28;20053;-79
2022/07/15 03:00:13;;;;;;;151.40;130.25;;;13.60;96.80;;;;;;5036146;28;20073;-79
2022/07/15 03:02:41;;;;;;;160.73;135.38;;;13.60;96.70;;;;;;5036340;28;20077;-79
2022/07/15 03:05:11;;;;;;;161.27;137.73;;;13.50;96.60;;;;;;5036028;28;20905;-79
2022/07/15 03:07:38;;;;;;;162.05;136.32;;;13.50;96.60;;;;;;5052915;28;20041;-79
2022/07/15 03:10:08;;;;;;;158.45;134.25;;;13.40;96.70;;;;;;5033670;28;20051;-79
2022/07/15 03:12:35;;;;;;;162.73;135.35;;;13.40;96.70;;;;;;5036170;28;20053;-79
2022/07/15 03:15:02;;;;;;;156.52;131.35;;;13.30;96.70;;;;;;5036326;28;20057;-79
2022/07/15 03:17:32;;;;;;;148.13;128.00;;;13.30;96.70;;;;;;5035444;28;20077;-79
2022/07/15 03:19:59;;;;;;;147.60;126.90;;;13.20;96.70;;;;;;5035944;28;20511;-79
2022/07/15 03:22:28;;;;;;;149.48;127.93;;;13.20;96.70;;;;;;5035719;28;20045;-79
2022/07/15 03:24:55;;;;;;;145.27;124.78;;;13.10;96.90;;;;;;5035911;28;20083;-79
2022/07/15 03:27:22;;;;;;;144.32;124.82;;;13.10;96.90;;;;;;5036058;28;20049;-79
2022/07/15 03:29:50;;;;;;;140.95;122.57;;;13.00;97.00;;;;;;5035667;28;20553;-79
2022/07/15 03:32:19;;;;;;;142.82;123.53;;;13.00;97.00;;;;;;5036196;28;20052;-78
2022/07/15 03:34:50;;;;;;;142.52;123.82;;;13.00;97.10;;;;;;5035872;28;20045;-79
2022/07/15 03:37:20;;;;;;;142.40;123.68;;;12.90;97.00;;;;;;5052084;28;20455;-79
2022/07/15 03:39:49;;;;;;;141.60;124.95;;;12.90;97.10;;;;;;5035771;28;20080;-79
2022/07/15 03:42:16;;;;;;;144.18;124.35;;;12.90;97.40;;;;;;5012564;28;20112;-79
2022/07/15 03:44:44;;;;;;;149.52;126.38;;;12.80;97.30;;;;;;5036177;28;20046;-78
2022/07/15 03:47:11;;;;;;;146.32;128.63;;;12.80;97.30;;;;;;5015263;28;21017;-79
2022/07/15 03:49:39;;;;;;;149.43;128.60;;;12.80;97.30;;;;;;5015796;28;20148;-78
2022/07/15 03:52:08;;;;;;;145.98;127.40;;;12.80;97.40;;;;;;5015523;28;20097;-79
2022/07/15 03:54:36;;;;;;;147.52;127.30;;;12.80;97.40;;;;;;5016120;28;20131;-79
2022/07/15 03:57:03;;;;;;;148.32;127.25;;;12.70;97.40;;;;;;5015680;28;20158;-78
2022/07/15 03:59:30;;;;;;;147.75;126.70;;;12.70;97.40;;;;;;5015788;28;20058;-79
2022/07/15 04:01:57;;;;;;;148.50;125.82;;;12.70;97.40;;;;;;5032201;28;20057;-79
2022/07/15 04:04:24;;;;;;;145.75;125.13;;;12.70;97.40;;;;;;5032114;28;20066;-78
2022/07/15 04:06:51;;;;;;;146.13;124.47;;;12.70;97.50;;;;;;5031985;28;20060;-79
2022/07/15 04:09:20;;;;;;;147.45;123.72;;;12.70;97.60;;;;;;5015589;28;20128;-79
2022/07/15 04:11:47;;;;;;;146.65;125.20;;;12.70;97.60;;;;;;5032218;28;20042;-79
2022/07/15 04:14:17;;;;;;;150.63;127.00;;;12.70;97.60;;;;;;5015301;28;20092;-79
2022/07/15 04:16:45;;;;;;;146.40;125.40;;;12.70;97.60;;;;;;5015186;28;20226;-79
2022/07/15 04:19:34;;;;;;;157.07;127.75;;;12.70;97.70;;;;;;5015417;28;20057;-79
2022/07/15 04:22:03;;;;;;;151.52;127.18;;;12.70;97.70;;;;;;5032426;28;20053;-79
2022/07/15 04:24:38;;;;;;;151.68;125.20;;;12.70;97.70;;;;;;5015240;28;20109;-79
2022/07/15 04:27:06;;;;;;;160.32;131.38;;;12.70;97.80;;;;;;5031467;28;20200;-79
2022/07/15 04:29:35;;;;;;;156.68;127.72;;;12.70;97.80;;;;;;5031974;28;20527;-79
2022/07/15 04:32:03;;;;;;;159.45;126.72;;;12.70;97.80;;;;;;5015342;28;20556;-79
2022/07/15 04:34:35;;;;;;;155.70;127.88;;;12.70;97.90;;;;;;5031430;28;20050;-79
2022/07/15 04:37:02;;;;;;;152.13;126.45;;;12.70;97.90;;;;;;5015668;28;20050;-78
2022/07/15 04:39:30;;;;;;;152.30;124.57;;;12.70;98.00;;;;;;5019019;28;20057;-79
2022/07/15 04:41:59;;;;;;;149.70;123.55;;;12.70;98.30;;;;;;5035102;28;20508;-79
2022/07/15 04:44:26;;;;;;;140.65;121.93;;;12.80;98.10;;;;;;5018661;28;20116;-79
2022/07/15 04:46:53;;;;;;;145.40;123.32;;;12.70;98.00;;;;;;5034816;28;20471;-79
2022/07/15 04:52:25;;;;;;;144.90;122.88;;;12.80;98.20;;;;;;5000157;28;20082;-79
2022/07/15 04:54:52;;;;;;;150.23;126.45;;;12.80;98.10;;;;;;5038489;28;20967;-79
2022/07/15 04:57:20;;;;;;;151.63;127.25;;;12.80;98.00;;;;;;5055173;28;20065;-79
2022/07/15 04:59:48;;;;;;;144.80;120.82;;;12.90;98.20;;;;;;5038411;28;20101;-78
2022/07/15 05:02:17;;;;;;;142.05;121.75;;;12.90;98.20;;;;;;5020937;28;20054;-78
2022/07/15 05:04:47;;;;;;;141.82;121.18;;;13.00;98.20;;;;;;5051600;28;20100;-79
2022/07/15 05:07:15;;;;;;;144.15;124.60;;;13.00;98.10;;;;;;5051000;28;20135;-79
2022/07/15 05:09:46;;;;;;;146.52;123.35;;;13.00;98.10;;;;;;5018106;28;20077;-79
2022/07/15 05:12:14;;;;;;;143.38;122.18;;;13.10;98.20;;;;;;5018268;28;20494;-79
2022/07/15 05:14:49;;;;;;;153.20;125.68;;;13.10;98.10;;;;;;5017952;28;20053;-79
2022/07/15 05:17:16;;;;;;;149.57;126.68;;;13.10;98.10;;;;;;5018118;28;20543;-79
2022/07/15 05:19:45;;;;;;;147.65;124.45;;;13.20;98.10;;;;;;5035029;28;20062;-79
2022/07/15 05:22:18;;;;;;;145.85;123.55;;;13.20;98.10;;;;;;5034691;28;20077;-79
2022/07/15 05:24:45;;;;;;;144.70;122.97;;;13.20;98.10;;;;;;5018161;28;20050;-79
2022/07/15 05:27:15;;;;;;;148.35;124.57;;;13.20;98.10;;;;;;5018035;28;20108;-79
2022/07/15 05:29:45;;;;;;;145.15;122.45;;;13.30;98.00;;;;;;5018109;28;20053;-79
2022/07/15 05:32:14;;;;;;;144.05;122.93;;;13.30;98.00;;;;;;5018161;28;20073;-79
2022/07/15 05:34:40;;;;;;;151.10;125.90;;;13.40;98.00;;;;;;5035741;28;20487;-79
2022/07/15 05:37:10;;;;;;;150.50;126.32;;;13.40;98.00;;;;;;5017826;28;20053;-79
2022/07/15 05:39:53;;;;;;;145.40;124.30;;;13.40;98.00;;;;;;5017961;28;20508;-79
2022/07/15 05:42:23;;;;;;;153.63;125.13;;;13.50;98.00;;;;;;5034337;28;20151;-78
2022/07/15 05:44:50;;;;;;;152.93;126.95;;;13.50;97.80;;;;;;5017716;28;20042;-79
2022/07/15 05:47:18;;;;;;;151.30;125.47;;;13.50;97.70;;;;;;5017275;28;20574;-79
2022/07/15 05:49:47;;;;;;;149.30;126.50;;;13.60;97.70;;;;;;5016380;28;20550;-79
2022/07/15 05:52:14;;;;;;;158.55;128.38;;;13.60;97.70;;;;;;5033695;28;20046;-79
2022/07/15 05:54:42;;;;;;;153.10;126.85;;;13.70;97.80;;;;;;5017429;28;20871;-79
2022/07/15 05:57:10;;;;;;;152.25;130.52;;;13.60;97.70;;;;;;5050129;28;20058;-79
2022/07/15 05:59:37;;;;;;;148.35;126.82;;;13.70;97.60;;;;;;5033626;28;20128;-79
2022/07/15 06:02:04;;;;;;;148.45;128.85;;;13.70;97.60;;;;;;5016979;28;20512;-79
2022/07/15 06:04:39;;;;;;;152.30;129.57;;;13.80;97.70;;;;;;5017068;28;20058;-79
2022/07/15 06:07:07;;;;;;;172.10;128.73;;;13.80;97.70;;;;;;5016883;28;20058;-79
2022/07/15 06:09:35;;;;;;;150.98;126.30;;;13.90;97.70;;;;;;5013826;28;20504;-79
2022/07/15 06:12:02;;;;;;;150.55;127.65;;;13.90;97.70;;;;;;5021107;28;20578;-77
2022/07/15 06:14:30;;;;;;;147.73;126.72;;;13.90;97.60;;;;;;5017248;28;20054;-80
2022/07/15 06:16:58;;;;;;;148.20;130.45;;;13.90;97.70;;;;;;5016852;28;20050;-80
2022/07/15 06:19:25;;;;;;;142.43;126.40;;;14.00;97.50;;;;;;5016687;28;20534;-80
2022/07/15 06:21:54;;;;;;;147.30;128.23;;;14.00;97.50;;;;;;5016755;28;20049;-81
2022/07/15 06:24:21;;;;;;;142.75;126.50;;;14.10;97.50;;;;;;5016388;28;20435;-80
2022/07/15 06:26:48;;;;;;;144.25;128.35;;;14.20;97.50;;;;;;5066609;28;20882;-81
2022/07/15 06:29:15;;;;;;;144.07;127.95;;;14.20;97.40;;;;;;5026659;28;20569;-80
2022/07/15 06:31:42;;;;;;;146.88;127.80;;;14.30;97.30;;;;;;5034065;28;20131;-80
2022/07/15 06:34:09;;;;;;;141.50;124.68;;;14.40;97.20;;;;;;5036615;28;20144;-82
2022/07/15 06:36:37;;;;;;;142.15;126.18;;;14.40;96.80;;;;;;5036651;28;20073;-80
2022/07/15 06:39:06;;;;;;;142.15;126.28;;;14.50;96.90;;;;;;5037168;28;20064;-79
2022/07/15 06:41:33;;;;;;;145.40;127.25;;;14.50;96.80;;;;;;5038726;28;20521;-81
2022/07/15 06:44:02;;;;;;;144.27;126.63;;;14.60;96.70;;;;;;5015922;28;20049;-81
2022/07/15 06:46:36;;;;;;;151.93;130.32;;;14.70;96.70;;;;;;5016053;28;20050;-81
2022/07/15 06:49:04;;;;;;;147.40;130.40;;;14.70;96.60;;;;;;5013354;28;20567;-80
2022/07/15 06:51:31;;;;;;;143.20;127.75;;;14.80;96.70;;;;;;5032292;28;20543;-80
2022/07/15 06:53:59;;;;;;;140.75;125.45;;;14.90;96.60;;;;;;5016212;28;20050;-79
2022/07/15 06:56:30;;;;;;;144.82;128.98;;;14.90;96.40;;;;;;5027828;28;20053;-80
2022/07/15 06:58:57;;;;;;;142.75;127.50;;;15.00;96.20;;;;;;5018167;28;20060;-80
2022/07/15 07:01:25;;;;;;;139.57;124.57;;;15.10;95.80;;;;;;5065753;28;20096;-80
2022/07/15 07:03:52;;;;;;;141.02;125.47;;;15.20;95.60;;;;;;5032960;28;20058;-81
2022/07/15 07:06:19;;;;;;;141.93;126.47;;;15.20;95.20;;;;;;5047076;28;20041;-82
2022/07/15 07:08:47;;;;;;;147.05;130.55;;;15.30;94.70;;;;;;5035971;28;20517;-81
2022/07/15 07:11:14;;;;;;;144.38;128.65;;;15.40;94.60;;;;;;5053142;28;20119;-82
2022/07/15 07:13:43;;;;;;;147.07;131.27;;;15.40;94.60;;;;;;5052208;28;20063;-80
2022/07/15 07:16:10;;;;;;;144.57;129.23;;;15.50;94.40;;;;;;5047331;28;20132;-82
2022/07/15 07:18:37;;;;;;;142.38;127.18;;;15.50;94.20;;;;;;5034524;28;20562;-80
2022/07/15 07:21:04;;;;;;;143.38;127.85;;;15.60;93.90;;;;;;5036071;28;20641;-80
2022/07/15 07:23:31;;;;;;;147.05;131.15;;;15.70;94.00;;;;;;5032286;28;20512;-80
2022/07/15 07:25:59;;;;;;;146.25;130.65;;;15.70;93.70;;;;;;5032330;28;20061;-80
2022/07/15 07:28:26;;;;;;;147.63;131.68;;;15.70;93.80;;;;;;5037396;28;20133;-81
2022/07/15 07:30:54;;;;;;;146.77;131.35;;;15.80;93.30;;;;;;5018800;28;20534;-75
2022/07/15 07:33:22;;;;;;;138.10;123.72;;;15.80;93.40;;;;;;5018419;28;20069;-80
2022/07/15 07:35:49;;;;;;;142.73;127.82;;;15.90;92.60;;;;;;5048251;28;20464;-81
2022/07/15 07:38:16;;;;;;;143.32;128.00;;;16.00;92.20;;;;;;5012488;28;20082;-77
2022/07/15 07:40:43;;;;;;;138.73;124.63;;;16.00;91.70;;;;;;5046439;28;20049;-81
2022/07/15 07:43:10;;;;;;;141.95;127.45;;;16.10;92.20;;;;;;5030530;28;20932;-82
2022/07/15 07:45:37;;;;;;;141.98;127.20;;;16.20;92.60;;;;;;5032243;28;20070;-80
2022/07/15 07:48:06;;;;;;;146.30;131.35;;;16.20;92.30;;;;;;5032078;28;20128;-81
2022/07/15 07:50:33;;;;;;;143.30;128.55;;;16.20;91.80;;;;;;5032084;28;20053;-79
2022/07/15 07:53:00;;;;;;;145.77;131.07;;;16.30;91.70;;;;;;5047929;28;20045;-78
2022/07/15 07:55:28;;;;;;;139.07;124.53;;;16.30;91.00;;;;;;5031439;28;20137;-80
2022/07/15 07:57:56;;;;;;;144.07;129.07;;;16.40;90.20;;;;;;4995628;28;20516;-79
2022/07/15 08:00:28;;;;;;;141.60;127.00;;;16.40;90.30;;;;;;5019175;28;20050;-79
2022/07/15 08:02:56;;;;;;;141.93;127.20;;;16.40;90.60;;;;;;5065421;28;20598;-80
2022/07/15 08:05:25;;;;;;;143.38;128.98;;;16.50;90.40;;;;;;5048714;28;20054;-81
2022/07/15 08:08:05;;;;;;;145.25;130.55;;;16.60;91.00;;;;;;5031604;28;20069;-81
2022/07/15 08:10:33;;;;;;;141.55;127.28;;;16.70;90.60;;;;;;5031919;28;20050;-79
2022/07/15 08:13:01;;;;;;;139.75;125.32;;;16.70;90.60;;;;;;5020151;28;20081;-80
2022/07/15 08:15:28;;;;;;;138.57;124.38;;;16.80;90.00;;;;;;5032231;28;20060;-79
2022/07/15 08:17:56;;;;;;;140.48;126.18;;;16.80;90.40;;;;;;5030663;28;20049;-79
2022/07/15 08:20:24;;;;;;;145.68;131.02;;;16.90;88.00;;;;;;5014973;28;20066;-79
2022/07/15 08:22:58;;;;;;;144.98;130.10;;;16.80;87.00;;;;;;5031465;28;20046;-78
2022/07/15 08:25:25;;;;;;;142.95;128.27;;;16.90;88.00;;;;;;5031168;28;20058;-78
2022/07/15 08:27:52;;;;;;;143.77;129.35;;;16.90;87.90;;;;;;5013290;28;20769;-80
2022/07/15 08:30:19;;;;;;;146.05;130.75;;;16.90;86.70;;;;;;5030217;28;20046;-79
2022/07/15 08:32:45;;;;;;;148.73;133.63;;;16.90;88.80;;;;;;5031560;28;20535;-80
2022/07/15 08:35:12;;;;;;;149.48;133.75;;;16.90;87.80;;;;;;5030106;28;20957;-78
2022/07/15 08:37:41;;;;;;;152.65;136.73;;;17.00;87.50;;;;;;5030286;28;20050;-78
2022/07/15 08:40:09;;;;;;;149.45;133.88;;;17.00;87.80;;;;;;5030437;28;20133;-80
2022/07/15 08:42:37;;;;;;;151.63;136.10;;;17.10;85.80;;;;;;5031458;28;20049;-80
2022/07/15 08:45:04;;;;;;;151.50;136.48;;;17.10;86.20;;;;;;5031885;28;20050;-80
2022/07/15 08:47:33;;;;;;;151.80;136.95;;;17.10;88.60;;;;;;5030632;28;20050;-79
2022/07/15 08:50:00;;;;;;;151.00;135.98;;;17.20;88.40;;;;;;5031588;28;20486;-79
2022/07/15 08:52:27;;;;;;;146.77;132.02;;;17.20;88.00;;;;;;5031598;28;20180;-82
2022/07/15 08:54:56;;;;;;;145.90;131.20;;;17.30;89.10;;;;;;5031302;28;20140;-79
2022/07/15 08:57:22;;;;;;;150.00;135.20;;;17.40;87.30;;;;;;5031080;28;20048;-80
2022/07/15 08:59:50;;;;;;;152.27;137.35;;;17.40;85.50;;;;;;5033175;28;20487;-82
2022/07/15 09:02:20;;;;;;;149.52;135.00;;;17.40;85.80;;;;;;5042626;28;20060;-81
2022/07/15 09:05:23;;;;;;;145.90;131.38;;;17.50;85.20;;;;;;5022883;28;20054;-82
2022/07/15 09:07:55;;;;;;;147.93;133.38;;;17.50;86.20;;;;;;5015982;28;20068;-80
2022/07/15 09:10:41;;;;;;;144.32;129.93;;;17.60;84.70;;;;;;5027772;28;20047;-80
2022/07/15 09:13:08;;;;;;;148.95;134.48;;;17.60;81.30;;;;;;5017173;28;20136;-82
2022/07/15 09:15:36;;;;;;;150.50;136.20;;;17.60;82.50;;;;;;5014352;28;20199;-79
2022/07/15 09:18:09;;;;;;;151.48;136.75;;;17.70;85.50;;;;;;5032167;28;20496;-79
2022/07/15 09:20:36;;;;;;;144.60;130.13;;;17.80;85.30;;;;;;5015043;28;20794;-82
2022/07/15 09:23:04;;;;;;;150.77;135.77;;;17.80;84.20;;;;;;5030824;28;20061;-80
2022/07/15 09:25:34;;;;;;;147.82;133.50;;;17.80;82.30;;;;;;5033676;28;20440;-83
2022/07/15 09:28:03;;;;;;;145.15;130.98;;;17.90;82.30;;;;;;5033776;28;20468;-78
2022/07/15 09:33:38;;;;;;;142.38;128.35;;;17.90;81.60;;;;;;5035131;28;20064;-80
2022/07/15 09:36:11;;;;;;;145.30;131.10;;;17.90;80.30;;;;;;5049978;28;20057;-84
2022/07/15 09:38:45;;;;;;;146.35;131.90;;;17.90;79.00;;;;;;5033066;28;20050;-77
2022/07/15 09:41:21;;;;;;;143.20;129.15;;;17.80;80.60;;;;;;5034832;28;20061;-79
2022/07/15 09:43:52;;;;;;;147.02;132.25;;;17.90;80.60;;;;;;5067365;28;20129;-78
2022/07/15 09:46:21;;;;;;;148.80;134.50;;;17.90;81.90;;;;;;5035251;28;20797;-79
2022/07/15 09:48:50;;;;;;;145.68;131.50;;;17.90;80.80;;;;;;5032684;28;20073;-79
2022/07/15 09:51:18;;;;;;;148.45;133.90;;;17.90;81.40;;;;;;5016726;28;20073;-77
2022/07/15 09:53:46;;;;;;;148.32;133.95;;;17.90;81.90;;;;;;5022250;28;20048;-77
2022/07/15 09:56:16;;;;;;;151.20;136.70;;;17.90;82.40;;;;;;5046827;28;20113;-77
2022/07/15 09:58:44;;;;;;;144.95;130.60;;;17.90;82.20;;;;;;5032603;28;20140;-78
2022/07/15 10:01:12;;;;;;;147.13;132.82;;;17.90;81.60;;;;;;5066914;28;20137;-77
2022/07/15 10:03:40;;;;;;;146.43;132.15;;;17.90;82.30;;;;;;5032849;28;20053;-78
2022/07/15 10:06:07;;;;;;;149.85;135.38;;;18.00;82.50;;;;;;5066459;28;20050;-74
2022/07/15 10:08:36;;;;;;;151.63;137.23;;;17.90;83.10;;;;;;5016287;28;20089;-73
2022/07/15 10:11:10;;;;;;;150.60;135.90;;;18.00;80.80;;;;;;5034083;28;20053;-73
2022/07/15 10:14:02;;;;;;;149.43;134.90;;;18.00;81.90;;;;;;5033302;28;20061;-72
2022/07/15 10:16:49;;;;;;;148.43;133.93;;;18.10;81.80;;;;;;5033341;28;20155;-72
2022/07/15 10:19:25;;;;;;;149.07;134.70;;;18.10;83.00;;;;;;5030376;28;20153;-73
2022/07/15 10:22:03;;;;;;;150.40;135.88;;;18.10;82.80;;;;;;5030906;28;20046;-72
2022/07/15 10:24:48;;;;;;;145.57;131.18;;;18.20;81.30;;;;;;5032189;28;20076;-73
2022/07/15 10:27:26;;;;;;;147.60;133.00;;;18.20;82.20;;;;;;5031786;28;20060;-72
2022/07/15 10:29:56;;;;;;;146.05;131.75;;;18.20;81.70;;;;;;5015422;28;20057;-72
2022/07/15 10:32:23;;;;;;;143.48;129.45;;;18.20;81.00;;;;;;5033454;28;20050;-72
2022/07/15 10:34:50;;;;;;;145.88;131.63;;;18.20;80.40;;;;;;5031519;28;20133;-80
2022/07/15 10:37:17;;;;;;;153.85;137.52;;;18.20;80.30;;;;;;5016071;28;20057;-77
2022/07/15 10:39:57;;;;;;;146.45;132.00;;;18.10;81.10;;;;;;5033633;28;20057;-78
2022/07/15 10:42:25;;;;;;;170.80;137.85;;;18.10;81.30;;;;;;5034187;28;20640;-75
2022/07/15 10:45:06;;;;;;;151.73;136.32;;;18.10;82.00;;;;;;5032233;28;20057;-78
2022/07/15 10:47:34;;;;;;;158.25;142.77;;;18.10;83.10;;;;;;5032960;28;20050;-78
2022/07/15 10:50:01;;;;;;;157.82;143.05;;;18.10;82.70;;;;;;5033455;28;20054;-78
2022/07/15 10:52:30;;;;;;;156.48;141.73;;;18.10;82.60;;;;;;5012666;28;20065;-78
2022/07/15 10:55:04;;;;;;;157.15;142.18;;;18.20;81.20;;;;;;5012998;28;20080;-78
2022/07/15 10:57:52;;;;;;;;;;;18.30;81.40;;;;;;5033863;28;20052;-78
2022/07/15 11:00:32;;;;;;;148.25;133.55;;;18.30;81.00;;;;;;5013368;28;19925;-78
2022/07/15 11:03:05;;;;;;;149.63;134.80;;;18.40;79.50;;;;;;5051452;28;20053;-78
2022/07/15 11:05:33;;;;;;;159.85;144.07;;;18.50;78.80;;;;;;5052204;28;20046;-77
2022/07/15 11:08:01;;;;;;;163.57;147.88;;;18.50;79.10;;;;;;5034178;28;20077;-77
2022/07/15 11:10:28;;;;;;;156.95;141.27;;;18.60;79.30;;;;;;5052709;28;20107;-77
2022/07/15 11:13:00;;;;;;;154.18;139.40;;;18.60;79.20;;;;;;5035173;28;20989;-82
2022/07/15 11:15:28;;;;;;;151.43;136.63;;;18.70;78.60;;;;;;5052245;28;20112;-76
2022/07/15 11:17:57;;;;;;;152.57;137.68;;;18.70;80.00;;;;;;5051215;28;20060;-76
2022/07/15 11:20:28;;;;;;;154.30;139.45;;;18.70;80.20;;;;;;5033685;28;20050;-76
2022/07/15 11:22:56;;;;;;;151.45;136.85;;;18.80;80.60;;;;;;5044586;28;20172;-76
2022/07/15 11:25:25;;;;;;;149.88;135.57;;;18.80;80.60;;;;;;5018266;28;20133;-83
2022/07/15 11:28:01;;;;;;;152.10;137.85;;;18.80;79.10;;;;;;5048477;28;20052;-78
2022/07/15 11:30:29;;;;;;;156.15;141.48;;;18.80;79.60;;;;;;5033680;28;20050;-78
2022/07/15 11:33:00;;;;;;;155.98;140.55;;;18.80;80.60;;;;;;5052155;28;20479;-79
2022/07/15 11:35:29;;;;;;;152.07;137.82;;;18.80;80.10;;;;;;5031123;28;20128;-79
2022/07/15 11:38:04;;;;;;;149.65;135.27;;;18.80;81.00;;;;;;5041337;28;20056;-80
2022/07/15 11:46:05;;;;;;;150.75;135.77;;;18.80;79.20;;;;;;5028122;28;20115;-79
2022/07/15 11:48:38;;;;;;;154.45;139.65;;;18.80;79.90;;;;;;5030897;28;20057;-81
2022/07/15 11:51:07;;;;;;;151.82;137.25;;;18.80;80.50;;;;;;5031347;28;20546;-77
2022/07/15 11:53:39;;;;;;;154.30;139.50;;;18.80;79.00;;;;;;5031106;28;20124;-77
2022/07/15 11:56:06;;;;;;;148.00;133.55;;;18.70;80.90;;;;;;5031587;28;20579;-77
2022/07/15 11:58:36;;;;;;;148.77;134.27;;;18.70;80.80;;;;;;5031135;28;20061;-77
2022/07/15 12:01:05;;;;;;;150.55;135.88;;;18.70;80.60;;;;;;5032936;28;20101;-77
2022/07/15 12:03:39;;;;;;;145.40;130.68;;;18.70;80.00;;;;;;5031517;28;20065;-77
2022/07/15 12:06:12;;;;;;;152.48;137.18;;;18.60;79.70;;;;;;5032473;28;20145;-76
2022/07/15 12:08:45;;;;;;;152.90;137.25;;;18.70;80.10;;;;;;5064120;28;20435;-78
2022/07/15 12:11:25;;;;;;;153.70;138.10;;;18.60;79.40;;;;;;5031391;28;20052;-78
2022/07/15 12:13:57;;;;;;;151.90;136.63;;;18.70;80.20;;;;;;5032820;28;20280;-78
2022/07/15 12:16:29;;;;;;;152.95;137.27;;;18.60;78.90;;;;;;5014768;28;20050;-78
2022/07/15 12:18:58;;;;;;;156.02;140.23;;;18.60;79.20;;;;;;5032147;28;20062;-78
2022/07/15 12:21:26;;;;;;;150.35;135.65;;;18.60;77.90;;;;;;5031461;28;20056;-79
2022/07/15 12:24:06;;;;;;;155.65;140.52;;;18.70;78.80;;;;;;5032018;28;20058;-78
2022/07/15 12:26:34;;;;;;;157.57;142.07;;;18.60;79.70;;;;;;5029502;28;20474;-79
2022/07/15 12:29:03;;;;;;;158.18;142.50;;;18.70;80.40;;;;;;5029707;28;20092;-78
2022/07/15 12:31:32;;;;;;;156.18;140.70;;;18.80;80.40;;;;;;5029856;28;20050;-78